sensor_id;sensor_type;location;lat;lon;timestamp;P1;durP1;ratioP1;P2;durP2;ratioP2
505;SDS011;551;48.524;9.056;2022-08-19T00:00:14;21.33;;;18.83;;
505;SDS011;551;48.524;9.056;2022-08-19T00:02:40;23.33;;;19.60;;
505;SDS011;551;48.524;9.056;2022-08-19T00:05:07;22.23;;;18.70;;
505;SDS011;551;48.524;9.056;2022-08-19T00:07:33;23.20;;;20.40;;
505;SDS011;551;48.524;9.056;2022-08-19T00:10:00;23.63;;;20.57;;
505;SDS011;551;48.524;9.056;2022-08-19T00:12:26;25.90;;;22.33;;
505;SDS011;551;48.524;9.056;2022-08-19T00:14:52;27.60;;;23.97;;
505;SDS011;551;48.524;9.056;2022-08-19T00:17:19;26.80;;;23.07;;
505;SDS011;551;48.524;9.056;2022-08-19T00:19:45;26.30;;;21.77;;
505;SDS011;551;48.524;9.056;2022-08-19T00:22:11;25.10;;;22.00;;
505;SDS011;551;48.524;9.056;2022-08-19T00:24:37;28.77;;;22.70;;
505;SDS011;551;48.524;9.056;2022-08-19T00:27:04;26.83;;;22.93;;
505;SDS011;551;48.524;9.056;2022-08-19T00:29:30;29.07;;;22.63;;
505;SDS011;551;48.524;9.056;2022-08-19T00:31:56;24.37;;;21.50;;
505;SDS011;551;48.524;9.056;2022-08-19T00:34:24;25.43;;;20.20;;
505;SDS011;551;48.524;9.056;2022-08-19T00:36:54;22.93;;;20.50;;
505;SDS011;551;48.524;9.056;2022-08-19T00:39:20;22.23;;;19.73;;
505;SDS011;551;48.524;9.056;2022-08-19T00:41:47;21.63;;;19.10;;
505;SDS011;551;48.524;9.056;2022-08-19T00:44:18;21.87;;;18.90;;
505;SDS011;551;48.524;9.056;2022-08-19T00:46:46;20.80;;;17.27;;
505;SDS011;551;48.524;9.056;2022-08-19T00:49:25;20.57;;;18.47;;
505;SDS011;551;48.524;9.056;2022-08-19T00:51:55;22.47;;;18.33;;
505;SDS011;551;48.524;9.056;2022-08-19T00:54:23;23.50;;;17.50;;
505;SDS011;551;48.524;9.056;2022-08-19T00:56:49;23.27;;;17.73;;
505;SDS011;551;48.524;9.056;2022-08-19T00:59:16;23.37;;;18.83;;
505;SDS011;551;48.524;9.056;2022-08-19T01:01:42;24.73;;;20.67;;
505;SDS011;551;48.524;9.056;2022-08-19T01:04:09;25.37;;;19.20;;
505;SDS011;551;48.524;9.056;2022-08-19T01:06:35;24.40;;;20.50;;
505;SDS011;551;48.524;9.056;2022-08-19T01:09:02;24.47;;;19.90;;
505;SDS011;551;48.524;9.056;2022-08-19T01:11:28;25.10;;;19.43;;
505;SDS011;551;48.524;9.056;2022-08-19T01:13:55;26.33;;;20.30;;
505;SDS011;551;48.524;9.056;2022-08-19T01:16:22;24.20;;;20.13;;
505;SDS011;551;48.524;9.056;2022-08-19T01:18:48;25.53;;;20.17;;
505;SDS011;551;48.524;9.056;2022-08-19T01:21:27;26.40;;;21.63;;
505;SDS011;551;48.524;9.056;2022-08-19T01:23:56;24.20;;;20.47;;
505;SDS011;551;48.524;9.056;2022-08-19T01:26:23;25.20;;;20.73;;
505;SDS011;551;48.524;9.056;2022-08-19T01:28:51;26.90;;;22.10;;
505;SDS011;551;48.524;9.056;2022-08-19T01:31:19;26.67;;;21.30;;
505;SDS011;551;48.524;9.056;2022-08-19T01:33:46;21.93;;;18.50;;
505;SDS011;551;48.524;9.056;2022-08-19T01:36:21;23.23;;;20.13;;
505;SDS011;551;48.524;9.056;2022-08-19T01:38:48;27.47;;;20.90;;
505;SDS011;551;48.524;9.056;2022-08-19T01:41:14;25.13;;;20.30;;
505;SDS011;551;48.524;9.056;2022-08-19T01:43:41;27.13;;;22.03;;
505;SDS011;551;48.524;9.056;2022-08-19T01:46:06;26.57;;;21.40;;
505;SDS011;551;48.524;9.056;2022-08-19T01:48:37;34.50;;;21.80;;
505;SDS011;551;48.524;9.056;2022-08-19T01:51:03;25.33;;;21.70;;
505;SDS011;551;48.524;9.056;2022-08-19T01:53:29;28.80;;;22.67;;
505;SDS011;551;48.524;9.056;2022-08-19T01:55:55;31.67;;;21.50;;
505;SDS011;551;48.524;9.056;2022-08-19T01:58:24;29.37;;;22.90;;
505;SDS011;551;48.524;9.056;2022-08-19T02:00:51;26.60;;;21.00;;
505;SDS011;551;48.524;9.056;2022-08-19T02:03:17;25.90;;;19.83;;
505;SDS011;551;48.524;9.056;2022-08-19T02:05:43;28.37;;;21.60;;
505;SDS011;551;48.524;9.056;2022-08-19T02:08:10;30.27;;;21.20;;
505;SDS011;551;48.524;9.056;2022-08-19T02:10:43;31.57;;;23.40;;
505;SDS011;551;48.524;9.056;2022-08-19T02:13:09;29.17;;;21.70;;
505;SDS011;551;48.524;9.056;2022-08-19T02:15:35;31.53;;;22.30;;
505;SDS011;551;48.524;9.056;2022-08-19T02:18:02;29.23;;;22.43;;
505;SDS011;551;48.524;9.056;2022-08-19T02:20:28;31.80;;;22.83;;
505;SDS011;551;48.524;9.056;2022-08-19T02:22:54;25.53;;;20.53;;
505;SDS011;551;48.524;9.056;2022-08-19T02:25:20;28.63;;;20.63;;
505;SDS011;551;48.524;9.056;2022-08-19T02:27:46;28.17;;;21.97;;
505;SDS011;551;48.524;9.056;2022-08-19T02:30:13;25.63;;;20.57;;
505;SDS011;551;48.524;9.056;2022-08-19T02:32:40;31.30;;;22.40;;
505;SDS011;551;48.524;9.056;2022-08-19T02:35:06;27.37;;;20.70;;
505;SDS011;551;48.524;9.056;2022-08-19T02:37:32;30.10;;;22.07;;
505;SDS011;551;48.524;9.056;2022-08-19T02:40:18;31.90;;;22.20;;
505;SDS011;551;48.524;9.056;2022-08-19T02:42:44;27.17;;;22.33;;
505;SDS011;551;48.524;9.056;2022-08-19T02:45:10;29.13;;;19.53;;
505;SDS011;551;48.524;9.056;2022-08-19T02:47:36;30.83;;;23.20;;
505;SDS011;551;48.524;9.056;2022-08-19T02:50:03;33.27;;;24.50;;
505;SDS011;551;48.524;9.056;2022-08-19T02:52:29;33.83;;;22.60;;
505;SDS011;551;48.524;9.056;2022-08-19T02:54:55;29.93;;;21.83;;
505;SDS011;551;48.524;9.056;2022-08-19T02:57:22;33.00;;;23.07;;
505;SDS011;551;48.524;9.056;2022-08-19T02:59:48;30.20;;;22.20;;
505;SDS011;551;48.524;9.056;2022-08-19T03:02:14;26.87;;;22.40;;
505;SDS011;551;48.524;9.056;2022-08-19T03:04:40;30.00;;;22.23;;
505;SDS011;551;48.524;9.056;2022-08-19T03:07:07;25.90;;;19.60;;
505;SDS011;551;48.524;9.056;2022-08-19T03:09:33;32.50;;;22.30;;
505;SDS011;551;48.524;9.056;2022-08-19T03:12:02;31.90;;;22.87;;
505;SDS011;551;48.524;9.056;2022-08-19T03:14:29;33.40;;;23.73;;
505;SDS011;551;48.524;9.056;2022-08-19T03:16:55;32.23;;;21.83;;
505;SDS011;551;48.524;9.056;2022-08-19T03:19:22;31.70;;;23.60;;
505;SDS011;551;48.524;9.056;2022-08-19T03:21:48;33.33;;;22.73;;
505;SDS011;551;48.524;9.056;2022-08-19T03:24:14;33.40;;;22.87;;
505;SDS011;551;48.524;9.056;2022-08-19T03:26:42;29.90;;;22.90;;
505;SDS011;551;48.524;9.056;2022-08-19T03:29:08;34.43;;;23.63;;
505;SDS011;551;48.524;9.056;2022-08-19T03:31:36;37.90;;;24.20;;
505;SDS011;551;48.524;9.056;2022-08-19T03:34:02;32.77;;;23.67;;
505;SDS011;551;48.524;9.056;2022-08-19T03:36:28;31.77;;;23.40;;
505;SDS011;551;48.524;9.056;2022-08-19T03:38:56;35.03;;;23.60;;
505;SDS011;551;48.524;9.056;2022-08-19T03:41:24;36.00;;;23.77;;
505;SDS011;551;48.524;9.056;2022-08-19T03:43:51;31.47;;;22.40;;
505;SDS011;551;48.524;9.056;2022-08-19T03:46:18;36.90;;;24.50;;
505;SDS011;551;48.524;9.056;2022-08-19T03:48:48;38.97;;;25.00;;
505;SDS011;551;48.524;9.056;2022-08-19T03:51:18;33.73;;;23.60;;
505;SDS011;551;48.524;9.056;2022-08-19T03:53:45;34.07;;;24.07;;
505;SDS011;551;48.524;9.056;2022-08-19T03:56:11;32.57;;;22.50;;
505;SDS011;551;48.524;9.056;2022-08-19T03:58:38;34.67;;;23.40;;
505;SDS011;551;48.524;9.056;2022-08-19T04:01:07;33.97;;;24.87;;
505;SDS011;551;48.524;9.056;2022-08-19T04:03:33;37.43;;;25.33;;
505;SDS011;551;48.524;9.056;2022-08-19T04:06:08;34.27;;;24.77;;
505;SDS011;551;48.524;9.056;2022-08-19T04:08:34;33.07;;;22.87;;
505;SDS011;551;48.524;9.056;2022-08-19T04:11:00;35.77;;;23.70;;
505;SDS011;551;48.524;9.056;2022-08-19T04:13:26;34.57;;;23.73;;
505;SDS011;551;48.524;9.056;2022-08-19T04:15:52;38.93;;;25.17;;
505;SDS011;551;48.524;9.056;2022-08-19T04:18:18;36.97;;;25.27;;
505;SDS011;551;48.524;9.056;2022-08-19T04:20:45;34.20;;;23.23;;
505;SDS011;551;48.524;9.056;2022-08-19T04:23:12;42.00;;;24.80;;
505;SDS011;551;48.524;9.056;2022-08-19T04:25:39;35.10;;;24.20;;
505;SDS011;551;48.524;9.056;2022-08-19T04:28:05;37.10;;;24.53;;
505;SDS011;551;48.524;9.056;2022-08-19T04:30:36;41.37;;;25.40;;
505;SDS011;551;48.524;9.056;2022-08-19T04:33:02;38.47;;;25.00;;
505;SDS011;551;48.524;9.056;2022-08-19T04:35:34;36.80;;;25.20;;
505;SDS011;551;48.524;9.056;2022-08-19T04:38:00;40.50;;;23.83;;
505;SDS011;551;48.524;9.056;2022-08-19T04:40:25;36.03;;;23.80;;
505;SDS011;551;48.524;9.056;2022-08-19T04:43:10;35.80;;;23.80;;
505;SDS011;551;48.524;9.056;2022-08-19T04:45:38;41.13;;;26.43;;
505;SDS011;551;48.524;9.056;2022-08-19T04:48:04;37.70;;;25.50;;
505;SDS011;551;48.524;9.056;2022-08-19T04:50:30;34.23;;;24.50;;
505;SDS011;551;48.524;9.056;2022-08-19T04:52:56;39.70;;;25.13;;
505;SDS011;551;48.524;9.056;2022-08-19T04:55:22;34.30;;;24.00;;
505;SDS011;551;48.524;9.056;2022-08-19T04:57:50;39.60;;;25.23;;
505;SDS011;551;48.524;9.056;2022-08-19T05:00:16;37.93;;;24.77;;
505;SDS011;551;48.524;9.056;2022-08-19T05:02:42;40.77;;;25.27;;
505;SDS011;551;48.524;9.056;2022-08-19T05:05:08;35.30;;;23.63;;
505;SDS011;551;48.524;9.056;2022-08-19T05:07:34;35.07;;;23.97;;
505;SDS011;551;48.524;9.056;2022-08-19T05:10:00;39.60;;;24.00;;
505;SDS011;551;48.524;9.056;2022-08-19T05:12:26;39.60;;;24.20;;
505;SDS011;551;48.524;9.056;2022-08-19T05:14:53;33.50;;;24.30;;
505;SDS011;551;48.524;9.056;2022-08-19T05:17:21;31.80;;;24.20;;
505;SDS011;551;48.524;9.056;2022-08-19T05:19:47;33.13;;;22.90;;
505;SDS011;551;48.524;9.056;2022-08-19T05:22:33;34.83;;;22.20;;
505;SDS011;551;48.524;9.056;2022-08-19T05:25:05;42.10;;;24.57;;
505;SDS011;551;48.524;9.056;2022-08-19T05:27:32;38.97;;;26.47;;
505;SDS011;551;48.524;9.056;2022-08-19T05:29:58;38.33;;;23.10;;
505;SDS011;551;48.524;9.056;2022-08-19T05:32:25;38.90;;;24.50;;
505;SDS011;551;48.524;9.056;2022-08-19T05:34:51;38.20;;;23.50;;
505;SDS011;551;48.524;9.056;2022-08-19T05:37:17;40.73;;;25.73;;
505;SDS011;551;48.524;9.056;2022-08-19T05:39:43;38.47;;;26.03;;
505;SDS011;551;48.524;9.056;2022-08-19T05:42:09;37.20;;;26.43;;
505;SDS011;551;48.524;9.056;2022-08-19T05:44:38;36.43;;;25.30;;
505;SDS011;551;48.524;9.056;2022-08-19T05:47:05;37.17;;;23.90;;
505;SDS011;551;48.524;9.056;2022-08-19T05:49:32;39.97;;;26.07;;
505;SDS011;551;48.524;9.056;2022-08-19T05:52:01;33.97;;;26.30;;
505;SDS011;551;48.524;9.056;2022-08-19T05:54:27;40.70;;;26.80;;
505;SDS011;551;48.524;9.056;2022-08-19T05:56:53;38.20;;;25.73;;
505;SDS011;551;48.524;9.056;2022-08-19T05:59:20;35.13;;;24.93;;
505;SDS011;551;48.524;9.056;2022-08-19T06:01:46;38.67;;;26.03;;
505;SDS011;551;48.524;9.056;2022-08-19T06:04:15;40.50;;;27.80;;
505;SDS011;551;48.524;9.056;2022-08-19T06:06:43;37.77;;;25.83;;
505;SDS011;551;48.524;9.056;2022-08-19T06:09:08;44.60;;;26.53;;
505;SDS011;551;48.524;9.056;2022-08-19T06:11:39;40.20;;;26.90;;
505;SDS011;551;48.524;9.056;2022-08-19T06:14:07;36.87;;;25.70;;
505;SDS011;551;48.524;9.056;2022-08-19T06:16:37;38.00;;;25.30;;
505;SDS011;551;48.524;9.056;2022-08-19T06:19:05;41.90;;;26.20;;
505;SDS011;551;48.524;9.056;2022-08-19T06:21:32;38.87;;;26.30;;
505;SDS011;551;48.524;9.056;2022-08-19T06:23:58;39.27;;;25.30;;
505;SDS011;551;48.524;9.056;2022-08-19T06:26:24;41.37;;;26.23;;
505;SDS011;551;48.524;9.056;2022-08-19T06:28:51;38.77;;;26.93;;
505;SDS011;551;48.524;9.056;2022-08-19T06:31:18;39.27;;;27.30;;
505;SDS011;551;48.524;9.056;2022-08-19T06:33:45;33.23;;;25.57;;
505;SDS011;551;48.524;9.056;2022-08-19T06:36:25;41.27;;;27.33;;
505;SDS011;551;48.524;9.056;2022-08-19T06:38:59;39.27;;;26.00;;
505;SDS011;551;48.524;9.056;2022-08-19T06:41:25;46.53;;;26.97;;
505;SDS011;551;48.524;9.056;2022-08-19T06:43:52;39.00;;;25.60;;
505;SDS011;551;48.524;9.056;2022-08-19T06:46:18;35.73;;;25.43;;
505;SDS011;551;48.524;9.056;2022-08-19T06:48:45;40.30;;;25.90;;
505;SDS011;551;48.524;9.056;2022-08-19T06:51:11;35.30;;;26.23;;
505;SDS011;551;48.524;9.056;2022-08-19T06:53:40;41.13;;;27.90;;
505;SDS011;551;48.524;9.056;2022-08-19T06:56:11;39.03;;;25.47;;
505;SDS011;551;48.524;9.056;2022-08-19T06:58:37;38.60;;;25.87;;
505;SDS011;551;48.524;9.056;2022-08-19T07:01:04;38.60;;;26.17;;
505;SDS011;551;48.524;9.056;2022-08-19T07:03:31;41.73;;;26.40;;
505;SDS011;551;48.524;9.056;2022-08-19T07:05:57;38.77;;;26.93;;
505;SDS011;551;48.524;9.056;2022-08-19T07:08:24;45.10;;;27.30;;
505;SDS011;551;48.524;9.056;2022-08-19T07:10:51;39.73;;;27.20;;
505;SDS011;551;48.524;9.056;2022-08-19T07:13:17;42.83;;;30.77;;
505;SDS011;551;48.524;9.056;2022-08-19T07:15:44;38.07;;;26.47;;
505;SDS011;551;48.524;9.056;2022-08-19T07:18:11;34.67;;;27.40;;
505;SDS011;551;48.524;9.056;2022-08-19T07:20:38;40.93;;;28.57;;
505;SDS011;551;48.524;9.056;2022-08-19T07:23:04;49.20;;;30.23;;
505;SDS011;551;48.524;9.056;2022-08-19T07:25:30;41.40;;;29.63;;
505;SDS011;551;48.524;9.056;2022-08-19T07:27:56;42.03;;;29.80;;
505;SDS011;551;48.524;9.056;2022-08-19T07:30:22;45.43;;;30.90;;
505;SDS011;551;48.524;9.056;2022-08-19T07:32:49;53.80;;;28.77;;
505;SDS011;551;48.524;9.056;2022-08-19T07:35:17;41.80;;;29.27;;
505;SDS011;551;48.524;9.056;2022-08-19T07:37:44;46.63;;;31.40;;
505;SDS011;551;48.524;9.056;2022-08-19T07:40:10;40.43;;;29.10;;
505;SDS011;551;48.524;9.056;2022-08-19T07:42:36;44.70;;;28.30;;
505;SDS011;551;48.524;9.056;2022-08-19T07:45:03;42.00;;;28.27;;
505;SDS011;551;48.524;9.056;2022-08-19T07:47:29;38.67;;;27.43;;
505;SDS011;551;48.524;9.056;2022-08-19T07:49:55;40.53;;;27.93;;
505;SDS011;551;48.524;9.056;2022-08-19T07:52:21;45.73;;;30.07;;
505;SDS011;551;48.524;9.056;2022-08-19T07:54:47;41.53;;;29.13;;
505;SDS011;551;48.524;9.056;2022-08-19T07:57:14;38.40;;;28.67;;
505;SDS011;551;48.524;9.056;2022-08-19T07:59:41;43.63;;;29.50;;
505;SDS011;551;48.524;9.056;2022-08-19T08:02:08;44.50;;;30.30;;
505;SDS011;551;48.524;9.056;2022-08-19T08:04:34;46.00;;;30.00;;
505;SDS011;551;48.524;9.056;2022-08-19T08:07:18;44.67;;;29.27;;
505;SDS011;551;48.524;9.056;2022-08-19T08:10:04;46.67;;;29.50;;
505;SDS011;551;48.524;9.056;2022-08-19T08:12:33;43.97;;;31.07;;
505;SDS011;551;48.524;9.056;2022-08-19T08:15:00;42.50;;;29.43;;
505;SDS011;551;48.524;9.056;2022-08-19T08:17:27;43.70;;;30.47;;
505;SDS011;551;48.524;9.056;2022-08-19T08:19:53;47.43;;;32.13;;
505;SDS011;551;48.524;9.056;2022-08-19T08:22:20;45.67;;;31.00;;
505;SDS011;551;48.524;9.056;2022-08-19T08:25:11;43.23;;;29.10;;
505;SDS011;551;48.524;9.056;2022-08-19T08:27:38;43.30;;;31.97;;
505;SDS011;551;48.524;9.056;2022-08-19T08:30:05;46.20;;;31.63;;
505;SDS011;551;48.524;9.056;2022-08-19T08:32:35;42.90;;;30.63;;
505;SDS011;551;48.524;9.056;2022-08-19T08:35:02;44.80;;;30.80;;
505;SDS011;551;48.524;9.056;2022-08-19T08:37:28;42.17;;;29.47;;
505;SDS011;551;48.524;9.056;2022-08-19T08:39:54;42.63;;;28.40;;
505;SDS011;551;48.524;9.056;2022-08-19T08:42:22;40.73;;;27.43;;
505;SDS011;551;48.524;9.056;2022-08-19T08:47:20;39.73;;;29.13;;
505;SDS011;551;48.524;9.056;2022-08-19T08:49:59;41.10;;;26.60;;
505;SDS011;551;48.524;9.056;2022-08-19T08:52:34;42.43;;;29.00;;
505;SDS011;551;48.524;9.056;2022-08-19T08:55:12;35.20;;;26.20;;
505;SDS011;551;48.524;9.056;2022-08-19T08:57:41;38.87;;;27.27;;
505;SDS011;551;48.524;9.056;2022-08-19T09:00:11;42.73;;;27.23;;
505;SDS011;551;48.524;9.056;2022-08-19T09:02:39;39.47;;;27.93;;
505;SDS011;551;48.524;9.056;2022-08-19T09:05:05;37.00;;;25.00;;
505;SDS011;551;48.524;9.056;2022-08-19T09:07:41;42.80;;;26.60;;
505;SDS011;551;48.524;9.056;2022-08-19T09:12:48;38.07;;;26.63;;
505;SDS011;551;48.524;9.056;2022-08-19T09:15:18;39.83;;;27.37;;
505;SDS011;551;48.524;9.056;2022-08-19T09:17:47;41.57;;;29.30;;
505;SDS011;551;48.524;9.056;2022-08-19T09:20:18;41.47;;;25.67;;
505;SDS011;551;48.524;9.056;2022-08-19T09:22:44;35.37;;;25.00;;
505;SDS011;551;48.524;9.056;2022-08-19T09:25:14;37.30;;;27.00;;
505;SDS011;551;48.524;9.056;2022-08-19T09:27:40;36.83;;;26.33;;
505;SDS011;551;48.524;9.056;2022-08-19T09:30:07;41.43;;;27.23;;
505;SDS011;551;48.524;9.056;2022-08-19T09:32:33;45.43;;;27.70;;
505;SDS011;551;48.524;9.056;2022-08-19T09:34:59;37.67;;;26.83;;
505;SDS011;551;48.524;9.056;2022-08-19T09:37:26;40.40;;;28.00;;
505;SDS011;551;48.524;9.056;2022-08-19T09:39:52;44.50;;;29.23;;
505;SDS011;551;48.524;9.056;2022-08-19T09:42:19;38.90;;;27.53;;
505;SDS011;551;48.524;9.056;2022-08-19T09:44:45;36.93;;;26.70;;
505;SDS011;551;48.524;9.056;2022-08-19T09:47:12;42.07;;;27.73;;
505;SDS011;551;48.524;9.056;2022-08-19T09:49:39;36.60;;;25.60;;
505;SDS011;551;48.524;9.056;2022-08-19T09:52:06;39.60;;;26.83;;
505;SDS011;551;48.524;9.056;2022-08-19T09:54:32;37.80;;;26.33;;
505;SDS011;551;48.524;9.056;2022-08-19T09:56:58;38.33;;;27.77;;
505;SDS011;551;48.524;9.056;2022-08-19T09:59:28;43.73;;;29.40;;
505;SDS011;551;48.524;9.056;2022-08-19T10:01:54;41.53;;;29.63;;
505;SDS011;551;48.524;9.056;2022-08-19T10:04:20;40.17;;;28.43;;
505;SDS011;551;48.524;9.056;2022-08-19T10:06:47;42.23;;;30.03;;
505;SDS011;551;48.524;9.056;2022-08-19T10:09:14;39.00;;;27.47;;
505;SDS011;551;48.524;9.056;2022-08-19T10:11:40;42.60;;;29.37;;
505;SDS011;551;48.524;9.056;2022-08-19T10:14:07;45.33;;;29.03;;
505;SDS011;551;48.524;9.056;2022-08-19T10:16:33;39.87;;;28.37;;
505;SDS011;551;48.524;9.056;2022-08-19T10:18:59;37.60;;;27.67;;
505;SDS011;551;48.524;9.056;2022-08-19T10:21:26;37.73;;;29.50;;
505;SDS011;551;48.524;9.056;2022-08-19T10:23:53;41.10;;;29.07;;
505;SDS011;551;48.524;9.056;2022-08-19T10:26:21;38.50;;;28.97;;
505;SDS011;551;48.524;9.056;2022-08-19T10:28:47;45.03;;;29.87;;
505;SDS011;551;48.524;9.056;2022-08-19T10:31:16;40.30;;;29.07;;
505;SDS011;551;48.524;9.056;2022-08-19T10:33:42;44.40;;;31.73;;
505;SDS011;551;48.524;9.056;2022-08-19T10:36:14;43.17;;;29.33;;
505;SDS011;551;48.524;9.056;2022-08-19T10:38:40;42.17;;;29.83;;
505;SDS011;551;48.524;9.056;2022-08-19T10:41:07;41.00;;;29.80;;
505;SDS011;551;48.524;9.056;2022-08-19T10:43:33;46.90;;;31.07;;
505;SDS011;551;48.524;9.056;2022-08-19T10:46:03;50.73;;;32.40;;
505;SDS011;551;48.524;9.056;2022-08-19T10:48:30;42.33;;;28.23;;
505;SDS011;551;48.524;9.056;2022-08-19T10:50:57;43.40;;;28.43;;
505;SDS011;551;48.524;9.056;2022-08-19T10:53:41;40.70;;;27.90;;
505;SDS011;551;48.524;9.056;2022-08-19T10:56:07;45.90;;;29.03;;
505;SDS011;551;48.524;9.056;2022-08-19T10:58:51;40.43;;;29.03;;
505;SDS011;551;48.524;9.056;2022-08-19T11:01:18;38.87;;;28.40;;
505;SDS011;551;48.524;9.056;2022-08-19T11:03:44;39.67;;;28.90;;
505;SDS011;551;48.524;9.056;2022-08-19T11:06:10;39.37;;;27.80;;
505;SDS011;551;48.524;9.056;2022-08-19T11:08:36;40.33;;;28.40;;
505;SDS011;551;48.524;9.056;2022-08-19T11:11:03;37.03;;;27.60;;
505;SDS011;551;48.524;9.056;2022-08-19T11:13:30;37.80;;;27.17;;
505;SDS011;551;48.524;9.056;2022-08-19T11:16:01;35.17;;;26.67;;
505;SDS011;551;48.524;9.056;2022-08-19T11:18:27;35.03;;;25.90;;
505;SDS011;551;48.524;9.056;2022-08-19T11:20:53;40.40;;;28.00;;
505;SDS011;551;48.524;9.056;2022-08-19T11:23:19;37.57;;;27.30;;
505;SDS011;551;48.524;9.056;2022-08-19T11:25:45;35.63;;;25.77;;
505;SDS011;551;48.524;9.056;2022-08-19T11:28:11;38.20;;;26.73;;
505;SDS011;551;48.524;9.056;2022-08-19T11:30:38;37.13;;;26.60;;
505;SDS011;551;48.524;9.056;2022-08-19T11:33:04;37.33;;;27.77;;
505;SDS011;551;48.524;9.056;2022-08-19T11:35:30;39.33;;;29.43;;
505;SDS011;551;48.524;9.056;2022-08-19T11:37:57;35.20;;;28.57;;
505;SDS011;551;48.524;9.056;2022-08-19T11:40:25;46.80;;;30.87;;
505;SDS011;551;48.524;9.056;2022-08-19T11:42:50;33.67;;;27.50;;
505;SDS011;551;48.524;9.056;2022-08-19T11:45:21;39.97;;;29.50;;
505;SDS011;551;48.524;9.056;2022-08-19T11:47:47;37.57;;;27.73;;
505;SDS011;551;48.524;9.056;2022-08-19T11:50:13;34.97;;;27.10;;
505;SDS011;551;48.524;9.056;2022-08-19T11:52:39;31.87;;;26.00;;
505;SDS011;551;48.524;9.056;2022-08-19T11:55:06;35.10;;;27.40;;
505;SDS011;551;48.524;9.056;2022-08-19T11:57:32;37.67;;;28.43;;
505;SDS011;551;48.524;9.056;2022-08-19T11:59:58;34.90;;;28.03;;
505;SDS011;551;48.524;9.056;2022-08-19T12:02:23;37.93;;;27.50;;
505;SDS011;551;48.524;9.056;2022-08-19T12:04:50;34.83;;;26.00;;
505;SDS011;551;48.524;9.056;2022-08-19T12:07:16;45.80;;;28.77;;
505;SDS011;551;48.524;9.056;2022-08-19T12:09:42;33.53;;;25.37;;
505;SDS011;551;48.524;9.056;2022-08-19T12:12:08;34.63;;;26.53;;
505;SDS011;551;48.524;9.056;2022-08-19T12:14:35;38.03;;;28.23;;
505;SDS011;551;48.524;9.056;2022-08-19T12:17:01;35.93;;;26.93;;
505;SDS011;551;48.524;9.056;2022-08-19T12:19:29;30.27;;;23.93;;
505;SDS011;551;48.524;9.056;2022-08-19T12:21:58;36.80;;;26.30;;
505;SDS011;551;48.524;9.056;2022-08-19T12:24:25;34.50;;;26.93;;
505;SDS011;551;48.524;9.056;2022-08-19T12:26:51;33.83;;;27.10;;
505;SDS011;551;48.524;9.056;2022-08-19T12:29:20;33.03;;;25.47;;
505;SDS011;551;48.524;9.056;2022-08-19T12:31:50;40.30;;;28.40;;
505;SDS011;551;48.524;9.056;2022-08-19T12:34:16;29.83;;;25.83;;
505;SDS011;551;48.524;9.056;2022-08-19T12:36:44;34.70;;;25.70;;
505;SDS011;551;48.524;9.056;2022-08-19T12:39:10;31.97;;;25.70;;
505;SDS011;551;48.524;9.056;2022-08-19T12:41:36;34.03;;;26.80;;
505;SDS011;551;48.524;9.056;2022-08-19T12:44:03;30.70;;;25.60;;
505;SDS011;551;48.524;9.056;2022-08-19T12:46:28;41.37;;;29.80;;
505;SDS011;551;48.524;9.056;2022-08-19T12:48:56;39.33;;;29.47;;
505;SDS011;551;48.524;9.056;2022-08-19T12:51:22;33.73;;;27.83;;
505;SDS011;551;48.524;9.056;2022-08-19T12:53:48;36.53;;;27.37;;
505;SDS011;551;48.524;9.056;2022-08-19T12:56:14;34.73;;;24.73;;
505;SDS011;551;48.524;9.056;2022-08-19T12:58:42;34.40;;;28.00;;
505;SDS011;551;48.524;9.056;2022-08-19T13:01:12;35.10;;;26.87;;
505;SDS011;551;48.524;9.056;2022-08-19T13:03:38;32.00;;;25.20;;
505;SDS011;551;48.524;9.056;2022-08-19T13:06:04;32.63;;;24.13;;
505;SDS011;551;48.524;9.056;2022-08-19T13:08:30;35.50;;;25.67;;
505;SDS011;551;48.524;9.056;2022-08-19T13:10:57;32.33;;;26.10;;
505;SDS011;551;48.524;9.056;2022-08-19T13:13:23;31.43;;;24.00;;
505;SDS011;551;48.524;9.056;2022-08-19T13:15:50;29.47;;;24.20;;
505;SDS011;551;48.524;9.056;2022-08-19T13:18:16;29.17;;;24.00;;
505;SDS011;551;48.524;9.056;2022-08-19T13:20:42;31.90;;;23.40;;
505;SDS011;551;48.524;9.056;2022-08-19T13:23:08;33.13;;;22.60;;
505;SDS011;551;48.524;9.056;2022-08-19T13:25:34;32.00;;;24.00;;
505;SDS011;551;48.524;9.056;2022-08-19T13:28:01;29.80;;;23.20;;
505;SDS011;551;48.524;9.056;2022-08-19T13:30:27;31.50;;;25.47;;
505;SDS011;551;48.524;9.056;2022-08-19T13:33:12;32.87;;;26.20;;
505;SDS011;551;48.524;9.056;2022-08-19T13:35:42;31.70;;;25.87;;
505;SDS011;551;48.524;9.056;2022-08-19T13:38:08;28.20;;;22.60;;
505;SDS011;551;48.524;9.056;2022-08-19T13:40:35;26.33;;;22.10;;
505;SDS011;551;48.524;9.056;2022-08-19T13:43:02;29.60;;;23.07;;
505;SDS011;551;48.524;9.056;2022-08-19T13:45:29;27.40;;;22.90;;
505;SDS011;551;48.524;9.056;2022-08-19T13:47:58;32.80;;;26.50;;
505;SDS011;551;48.524;9.056;2022-08-19T13:50:26;29.63;;;25.90;;
505;SDS011;551;48.524;9.056;2022-08-19T13:52:53;30.60;;;24.10;;
505;SDS011;551;48.524;9.056;2022-08-19T13:55:19;31.97;;;23.50;;
505;SDS011;551;48.524;9.056;2022-08-19T13:57:45;28.97;;;24.53;;
505;SDS011;551;48.524;9.056;2022-08-19T14:00:14;30.67;;;25.30;;
505;SDS011;551;48.524;9.056;2022-08-19T14:02:42;33.23;;;26.50;;
505;SDS011;551;48.524;9.056;2022-08-19T14:05:10;33.03;;;27.40;;
505;SDS011;551;48.524;9.056;2022-08-19T14:07:36;32.20;;;26.30;;
505;SDS011;551;48.524;9.056;2022-08-19T14:10:03;28.00;;;23.50;;
505;SDS011;551;48.524;9.056;2022-08-19T14:12:29;28.30;;;24.70;;
505;SDS011;551;48.524;9.056;2022-08-19T14:14:56;31.30;;;24.90;;
505;SDS011;551;48.524;9.056;2022-08-19T14:17:22;26.53;;;21.37;;
505;SDS011;551;48.524;9.056;2022-08-19T14:19:49;25.20;;;22.47;;
505;SDS011;551;48.524;9.056;2022-08-19T14:22:15;27.90;;;23.50;;
505;SDS011;551;48.524;9.056;2022-08-19T14:24:41;28.80;;;24.40;;
505;SDS011;551;48.524;9.056;2022-08-19T14:27:07;29.70;;;23.73;;
505;SDS011;551;48.524;9.056;2022-08-19T14:29:33;27.37;;;21.90;;
505;SDS011;551;48.524;9.056;2022-08-19T14:31:59;28.57;;;22.57;;
505;SDS011;551;48.524;9.056;2022-08-19T14:34:26;27.97;;;23.60;;
505;SDS011;551;48.524;9.056;2022-08-19T14:36:52;30.60;;;25.40;;
505;SDS011;551;48.524;9.056;2022-08-19T14:39:18;28.20;;;23.67;;
505;SDS011;551;48.524;9.056;2022-08-19T14:41:44;29.83;;;24.43;;
505;SDS011;551;48.524;9.056;2022-08-19T14:44:11;30.50;;;24.00;;
505;SDS011;551;48.524;9.056;2022-08-19T14:46:38;30.33;;;23.73;;
505;SDS011;551;48.524;9.056;2022-08-19T14:49:04;26.83;;;22.50;;
505;SDS011;551;48.524;9.056;2022-08-19T14:51:30;28.57;;;23.50;;
505;SDS011;551;48.524;9.056;2022-08-19T14:53:56;30.20;;;23.77;;
505;SDS011;551;48.524;9.056;2022-08-19T14:56:23;26.70;;;23.70;;
505;SDS011;551;48.524;9.056;2022-08-19T14:58:50;28.73;;;23.57;;
505;SDS011;551;48.524;9.056;2022-08-19T15:01:16;32.67;;;26.20;;
505;SDS011;551;48.524;9.056;2022-08-19T15:03:44;28.23;;;24.37;;
505;SDS011;551;48.524;9.056;2022-08-19T15:06:10;32.87;;;26.07;;
505;SDS011;551;48.524;9.056;2022-08-19T15:08:37;30.50;;;24.50;;
505;SDS011;551;48.524;9.056;2022-08-19T15:11:07;31.00;;;24.60;;
505;SDS011;551;48.524;9.056;2022-08-19T15:13:34;41.50;;;26.20;;
505;SDS011;551;48.524;9.056;2022-08-19T15:16:00;31.40;;;24.90;;
505;SDS011;551;48.524;9.056;2022-08-19T15:18:26;34.37;;;26.70;;
505;SDS011;551;48.524;9.056;2022-08-19T15:20:52;30.60;;;24.47;;